createdAt,value
2018-02-15T00:00:23.146Z,106.87
2018-02-15T00:02:50.723Z,111.47
2018-02-15T00:05:18.323Z,123.47
2018-02-15T00:07:46.694Z,118.70
2018-02-15T00:10:14.618Z,113.80
2018-02-15T00:12:42.195Z,109.10
2018-02-15T00:15:09.779Z,112.97
2018-02-15T00:17:37.372Z,126.53
2018-02-15T00:20:05.719Z,100.43
2018-02-15T00:22:34.082Z,125.80
2018-02-15T00:25:01.649Z,130.53
2018-02-15T00:27:29.288Z,117.47
2018-02-15T00:29:57.636Z,125.23
2018-02-15T00:32:25.232Z,111.03
2018-02-15T00:34:52.798Z,153.50
2018-02-15T00:37:20.387Z,130.87
2018-02-15T00:39:47.963Z,121.07
2018-02-15T00:42:15.565Z,124.20
2018-02-15T00:44:43.150Z,226.53
2018-02-15T00:47:10.798Z,137.93
2018-02-15T00:49:39.142Z,128.77
2018-02-15T00:52:06.706Z,132.13
2018-02-15T00:54:34.302Z,119.10
2018-02-15T00:57:01.871Z,117.27
2018-02-15T00:59:29.464Z,108.60
2018-02-15T01:01:57.049Z,130.23
2018-02-15T01:04:24.646Z,126.47
2018-02-15T01:06:52.221Z,111.67
2018-02-15T01:09:19.813Z,108.57
2018-02-15T01:11:47.380Z,110.23
2018-02-15T01:14:14.976Z,104.70
2018-02-15T01:16:42.549Z,112.70
2018-02-15T01:19:10.147Z,119.70
2018-02-15T01:21:37.741Z,127.33
2018-02-15T01:24:05.336Z,122.10
2018-02-15T01:26:32.926Z,142.27
2018-02-15T01:29:00.608Z,126.90
2018-02-15T01:31:28.187Z,152.13
2018-02-15T01:33:55.750Z,141.70
2018-02-15T01:36:23.331Z,145.83
2018-02-15T01:38:50.899Z,151.77
2018-02-15T01:41:18.508Z,159.17
2018-02-15T01:43:46.120Z,157.73
2018-02-15T01:46:13.739Z,113.03
2018-02-15T01:48:42.069Z,134.03
2018-02-15T01:51:09.647Z,134.17
2018-02-15T01:53:37.246Z,136.97
2018-02-15T01:56:04.834Z,126.40
2018-02-15T01:58:32.424Z,123.93
2018-02-15T02:01:00.006Z,129.77
2018-02-15T02:03:27.607Z,124.00
2018-02-15T02:05:55.178Z,114.50
2018-02-15T02:08:22.819Z,115.57
2018-02-15T02:10:51.159Z,87.77
2018-02-15T02:13:18.748Z,99.73
2018-02-15T02:15:46.326Z,129.33
2018-02-15T02:18:13.917Z,93.10
2018-02-15T02:20:41.627Z,100.00
2018-02-15T02:23:09.224Z,97.43
2018-02-15T02:25:36.811Z,86.20
2018-02-15T02:28:04.418Z,91.90
2018-02-15T02:30:32.000Z,110.10
2018-02-15T02:32:59.687Z,88.43
2018-02-15T02:35:28.023Z,94.30
2018-02-15T02:37:55.598Z,120.20
2018-02-15T02:40:23.194Z,113.33
2018-02-15T02:42:50.763Z,117.97
2018-02-15T02:45:18.361Z,101.13
2018-02-15T02:47:45.931Z,108.90
2018-02-15T02:50:13.525Z,104.03
2018-02-15T02:52:41.102Z,108.83
2018-02-15T02:55:08.683Z,93.33
2018-02-15T02:57:36.252Z,87.13
2018-02-15T03:00:04.607Z,93.50
2018-02-15T03:02:32.180Z,116.10
2018-02-15T03:04:59.781Z,102.80
2018-02-15T03:07:27.351Z,119.23
2018-02-15T03:09:54.943Z,93.80
2018-02-15T03:12:22.520Z,120.77
2018-02-15T03:14:50.140Z,100.17
2018-02-15T03:17:18.484Z,110.23
2018-02-15T03:19:46.059Z,104.50
2018-02-15T03:22:13.655Z,104.43
2018-02-15T03:24:41.226Z,84.40
2018-02-15T03:27:08.816Z,117.97
2018-02-15T03:29:36.396Z,118.93
2018-02-15T03:32:04.000Z,101.60
2018-02-15T03:34:31.577Z,110.13
2018-02-15T03:36:59.180Z,123.37
2018-02-15T03:39:26.742Z,117.03
2018-02-15T03:41:54.339Z,141.57
2018-02-15T03:44:21.914Z,140.00
2018-02-15T03:46:49.522Z,132.77
2018-02-15T03:49:17.108Z,139.50
2018-02-15T03:51:44.701Z,117.53
2018-02-15T03:54:12.279Z,117.40
2018-02-15T03:56:39.908Z,123.80
2018-02-15T03:59:08.247Z,130.20
2018-02-15T04:01:35.830Z,141.57
2018-02-15T04:04:03.418Z,142.67
2018-02-15T04:06:30.987Z,151.70
2018-02-15T04:08:58.583Z,166.80
2018-02-15T04:11:26.198Z,180.30
2018-02-15T04:13:53.860Z,146.70
2018-02-15T04:16:21.421Z,142.20
2018-02-15T04:18:49.019Z,148.57
2018-02-15T04:21:16.625Z,182.33
2018-02-15T04:23:44.227Z,145.03
2018-02-15T04:26:11.807Z,158.83
2018-02-15T04:28:39.419Z,124.60
2018-02-15T04:31:07.763Z,183.37
2018-02-15T04:33:35.336Z,141.40
2018-02-15T04:36:02.922Z,139.83
2018-02-15T04:38:30.491Z,139.93
2018-02-15T04:40:58.079Z,167.37
2018-02-15T04:43:25.649Z,131.03
2018-02-15T04:45:54.008Z,150.40
2018-02-15T04:48:21.580Z,152.00
2018-02-15T04:50:49.178Z,158.63
2018-02-15T04:53:16.765Z,135.87
2018-02-15T04:55:44.363Z,124.30
2018-02-15T04:58:11.933Z,139.27
2018-02-15T05:00:39.732Z,149.60
2018-02-15T05:03:07.311Z,128.97
2018-02-15T05:05:34.927Z,114.27
2018-02-15T05:08:03.309Z,138.33
2018-02-15T05:10:30.987Z,125.27
2018-02-15T05:12:58.573Z,124.43
2018-02-15T05:15:26.198Z,134.77
2018-02-15T05:17:53.786Z,150.87
2018-02-15T05:20:21.359Z,133.83
2018-02-15T05:22:49.731Z,159.30
2018-02-15T05:25:17.304Z,137.63
2018-02-15T05:27:44.915Z,134.07
2018-02-15T05:30:12.496Z,116.83
2018-02-15T05:32:40.089Z,143.53
2018-02-15T05:35:08.422Z,116.77
2018-02-15T05:37:36.014Z,126.93
2018-02-15T05:40:03.580Z,131.63
2018-02-15T05:42:31.939Z,142.90
2018-02-15T05:44:59.532Z,134.57
2018-02-15T05:47:27.151Z,135.47
2018-02-15T05:49:54.725Z,136.27
2018-02-15T05:52:23.087Z,132.43
2018-02-15T05:54:50.684Z,132.10
2018-02-15T05:57:18.246Z,119.87
2018-02-15T05:59:45.837Z,123.90
2018-02-15T06:02:13.410Z,117.57
2018-02-15T06:04:40.999Z,111.53
2018-02-15T06:07:08.575Z,122.97
2018-02-15T06:09:36.349Z,130.30
2018-02-15T06:12:03.930Z,122.70
2018-02-15T06:14:31.527Z,123.80
2018-02-15T06:16:59.102Z,130.40
2018-02-15T06:19:26.699Z,126.70
2018-02-15T06:21:54.410Z,123.83
2018-02-15T06:24:22.152Z,142.67
2018-02-15T06:26:49.906Z,134.87
2018-02-15T06:29:17.613Z,128.13
2018-02-15T06:31:46.111Z,108.53
2018-02-15T06:34:14.627Z,125.83
2018-02-15T06:36:43.121Z,122.37
2018-02-15T06:39:10.854Z,125.37
2018-02-15T06:41:38.578Z,133.83
2018-02-15T06:44:06.313Z,123.17
2018-02-15T06:46:34.074Z,137.20
2018-02-15T06:49:01.792Z,138.03
2018-02-15T06:51:29.541Z,114.87
2018-02-15T06:53:57.329Z,151.70
2018-02-15T06:56:25.091Z,149.50
2018-02-15T06:58:53.611Z,140.07
2018-02-15T07:01:21.319Z,147.43
2018-02-15T07:03:49.045Z,163.83
2018-02-15T07:06:16.767Z,151.67
2018-02-15T07:08:44.503Z,158.87
2018-02-15T07:11:12.210Z,129.07
2018-02-15T07:13:39.947Z,144.00
2018-02-15T07:16:07.658Z,147.37
2018-02-15T07:18:35.378Z,148.60
2018-02-15T07:21:03.094Z,144.37
2018-02-15T07:23:30.824Z,167.27
2018-02-15T07:25:59.304Z,125.50
2018-02-15T07:28:27.049Z,147.43
2018-02-15T07:30:54.774Z,156.10
2018-02-15T07:33:22.523Z,154.40
2018-02-15T07:35:50.280Z,106.43
2018-02-15T07:38:18.763Z,140.20
2018-02-15T07:40:46.486Z,130.90
2018-02-15T07:43:14.196Z,134.90
2018-02-15T07:45:41.943Z,132.60
2018-02-15T07:48:10.415Z,134.47
2018-02-15T07:50:38.151Z,123.97
2018-02-15T07:53:06.623Z,139.73
2018-02-15T07:55:34.358Z,124.40
2018-02-15T07:58:02.074Z,132.50
2018-02-15T08:00:29.806Z,120.43
2018-02-15T08:02:57.516Z,149.53
2018-02-15T08:05:25.240Z,124.17
2018-02-15T08:07:52.941Z,115.47
2018-02-15T08:10:20.673Z,116.80
2018-02-15T08:12:48.384Z,125.67
2018-02-15T08:15:16.129Z,134.67
2018-02-15T08:17:44.635Z,115.93
2018-02-15T08:20:12.375Z,130.70
2018-02-15T08:22:40.107Z,137.03
2018-02-15T08:25:07.824Z,114.20
2018-02-15T08:27:35.568Z,116.03
2018-02-15T08:30:03.282Z,103.10
2018-02-15T08:32:31.783Z,98.07
2018-02-15T08:35:00.259Z,120.03
2018-02-15T08:37:27.992Z,108.20
2018-02-15T08:39:55.754Z,122.60
2018-02-15T08:42:23.542Z,112.33
2018-02-15T08:44:51.259Z,122.97
2018-02-15T08:47:18.991Z,121.20
2018-02-15T08:49:46.710Z,116.10
2018-02-15T08:52:14.441Z,136.30
2018-02-15T08:54:42.154Z,133.80
2018-02-15T08:57:09.911Z,121.63
2018-02-15T08:59:37.619Z,124.37
2018-02-15T09:02:05.326Z,126.83
2018-02-15T09:04:33.056Z,117.67
2018-02-15T09:07:01.532Z,127.67
2018-02-15T09:09:29.267Z,117.03
2018-02-15T09:11:56.983Z,111.33
2018-02-15T09:14:24.723Z,137.90
2018-02-15T09:16:52.425Z,140.47
2018-02-15T09:19:20.155Z,143.80
2018-02-15T09:21:47.865Z,123.47
2018-02-15T09:24:15.592Z,129.57
2018-02-15T09:26:44.071Z,125.53
2018-02-15T09:29:12.575Z,133.77
2018-02-15T09:31:41.084Z,125.13
2018-02-15T09:34:09.635Z,134.87
2018-02-15T09:36:37.382Z,119.40
2018-02-15T09:39:05.877Z,133.20
2018-02-15T09:41:34.414Z,153.37
2018-02-15T09:44:02.901Z,131.93
2018-02-15T09:46:31.397Z,123.87
2018-02-15T09:48:59.895Z,143.13
2018-02-15T09:51:27.623Z,111.50
2018-02-15T09:53:55.519Z,146.37
2018-02-15T09:56:23.275Z,123.90
2018-02-15T09:58:51.759Z,123.30
2018-02-15T10:01:19.492Z,129.23
2018-02-15T10:03:48.016Z,124.13
2018-02-15T10:06:15.748Z,100.57
2018-02-15T10:08:43.503Z,101.47
2018-02-15T10:11:11.243Z,101.70
2018-02-15T10:13:39.003Z,107.97
2018-02-15T10:16:06.739Z,98.07
2018-02-15T10:18:35.280Z,113.80
2018-02-15T10:21:03.015Z,113.50
2018-02-15T10:23:30.767Z,112.07
2018-02-15T10:25:58.513Z,109.23
2018-02-15T10:28:26.287Z,93.97
2018-02-15T10:30:54.795Z,99.33
2018-02-15T10:33:23.290Z,98.20
2018-02-15T10:35:51.048Z,99.57
2018-02-15T10:38:18.782Z,101.57
2018-02-15T10:40:47.301Z,99.43
2018-02-15T10:43:15.061Z,119.53
2018-02-15T10:45:42.825Z,108.57
2018-02-15T10:48:10.581Z,108.07
2018-02-15T10:50:38.344Z,104.57
2018-02-15T10:53:06.857Z,117.47
2018-02-15T10:55:35.385Z,108.23
2018-02-15T10:58:03.124Z,110.27
2018-02-15T11:00:36.564Z,108.47
2018-02-15T11:03:10.688Z,98.03
2018-02-15T11:05:40.264Z,107.53
2018-02-15T11:08:12.953Z,107.10
2018-02-15T11:10:40.743Z,116.47
2018-02-15T11:13:08.495Z,99.13
2018-02-15T11:15:36.241Z,102.00
2018-02-15T11:18:03.995Z,107.10
2018-02-15T11:20:32.490Z,115.40
2018-02-15T11:23:00.247Z,103.47
2018-02-15T11:25:27.995Z,105.60
2018-02-15T11:27:55.765Z,95.97
2018-02-15T11:30:24.265Z,97.90
2018-02-15T11:32:52.786Z,107.77
2018-02-15T11:35:20.529Z,94.80
2018-02-15T11:37:48.297Z,108.53
2018-02-15T11:40:16.041Z,104.50
2018-02-15T11:42:44.567Z,108.93
2018-02-15T11:45:12.308Z,109.33
2018-02-15T11:47:40.100Z,93.23
2018-02-15T11:50:07.843Z,99.87
2018-02-15T11:52:35.594Z,107.77
2018-02-15T11:55:04.124Z,94.47
2018-02-15T11:57:31.865Z,90.77
2018-02-15T11:59:59.623Z,90.63
2018-02-15T12:02:27.371Z,101.37
2018-02-15T12:04:55.896Z,106.03
2018-02-15T12:07:24.159Z,122.43
2018-02-15T12:09:51.917Z,101.93
2018-02-15T12:12:19.660Z,102.13
2018-02-15T12:14:48.196Z,117.87
2018-02-15T12:17:15.939Z,117.40
2018-02-15T12:19:43.690Z,109.00
2018-02-15T12:22:11.423Z,121.50
2018-02-15T12:24:39.183Z,105.07
2018-02-15T12:27:06.919Z,117.27
2018-02-15T12:29:34.677Z,119.93
2018-02-15T12:32:02.422Z,119.43
2018-02-15T12:34:30.200Z,107.43
2018-02-15T12:36:57.930Z,110.43
2018-02-15T12:39:25.680Z,112.63
2018-02-15T12:41:53.442Z,107.50
2018-02-15T12:44:21.761Z,99.83
2018-02-15T12:46:49.324Z,117.60
2018-02-15T12:49:17.631Z,120.90
2018-02-15T12:51:45.965Z,109.67
2018-02-15T12:54:13.512Z,115.93
2018-02-15T12:56:41.847Z,110.90
2018-02-15T12:59:09.387Z,122.37
2018-02-15T13:01:37.747Z,119.80
2018-02-15T13:04:05.292Z,110.77
2018-02-15T13:06:33.609Z,117.87
2018-02-15T13:09:01.178Z,105.67
2018-02-15T13:11:28.732Z,112.23
2018-02-15T13:13:56.292Z,122.30
2018-02-15T13:16:35.640Z,112.37
2018-02-15T13:19:15.725Z,118.63
2018-02-15T13:21:43.268Z,115.20
2018-02-15T13:24:10.838Z,108.03
2018-02-15T13:26:38.371Z,108.87
2018-02-15T13:29:05.934Z,112.03
2018-02-15T13:31:33.479Z,121.43
2018-02-15T13:34:01.039Z,123.80
2018-02-15T13:36:28.583Z,110.93
2018-02-15T13:38:56.142Z,125.80
2018-02-15T13:41:24.464Z,123.80
2018-02-15T13:43:52.015Z,132.93
2018-02-15T13:46:19.555Z,124.23
2018-02-15T13:48:47.130Z,104.13
2018-02-15T13:51:14.674Z,111.30
2018-02-15T13:53:42.246Z,117.87
2018-02-15T13:56:09.810Z,116.13
2018-02-15T13:58:37.351Z,119.70
2018-02-15T14:01:04.914Z,128.37
2018-02-15T14:09:27.092Z,109.87
2018-02-15T14:11:54.663Z,132.97
2018-02-15T14:14:23.021Z,116.23
2018-02-15T14:16:50.594Z,122.33
2018-02-15T14:19:18.136Z,129.70
2018-02-15T14:21:46.497Z,119.57
2018-02-15T14:24:14.043Z,126.67
2018-02-15T14:26:42.368Z,139.07
2018-02-15T14:29:09.977Z,100.33
2018-02-15T14:31:37.531Z,136.97
2018-02-15T14:34:05.121Z,116.30
2018-02-15T14:36:32.678Z,114.57
2018-02-15T14:39:01.808Z,132.67
2018-02-15T14:41:29.348Z,135.83
2018-02-15T14:43:56.921Z,116.43
2018-02-15T14:46:24.459Z,116.30
2018-02-15T14:48:52.014Z,111.77
2018-02-15T14:51:19.566Z,129.20
2018-02-15T14:53:47.155Z,133.83
2018-02-15T14:56:14.716Z,130.30
2018-02-15T14:58:42.258Z,131.43
2018-02-15T15:01:09.825Z,129.43
2018-02-15T15:03:38.140Z,108.17
2018-02-15T15:06:05.717Z,121.53
2018-02-15T15:08:33.259Z,128.37
2018-02-15T15:11:01.578Z,125.47
2018-02-15T15:13:29.113Z,137.87
2018-02-15T15:15:57.459Z,122.70
2018-02-15T15:18:25.019Z,144.67
2018-02-15T15:20:52.581Z,148.50
2018-02-15T15:23:20.156Z,133.90
2018-02-15T15:25:47.743Z,127.27
2018-02-15T15:28:15.288Z,131.10
2018-02-15T15:30:42.839Z,132.83
2018-02-15T15:33:11.172Z,124.07
2018-02-15T15:35:38.714Z,127.63
2018-02-15T15:38:06.274Z,122.87
2018-02-15T15:40:34.592Z,134.73
2018-02-15T15:43:02.163Z,139.23
2018-02-15T15:45:29.739Z,123.67
2018-02-15T15:47:57.308Z,112.90
2018-02-15T15:50:24.855Z,126.43
2018-02-15T15:52:53.273Z,125.27
2018-02-15T15:55:20.856Z,119.77
2018-02-15T15:57:48.458Z,121.80
2018-02-15T16:00:16.009Z,119.40
2018-02-15T16:02:43.555Z,124.70
2018-02-15T16:05:11.106Z,132.37
2018-02-15T16:07:39.416Z,112.90
2018-02-15T16:10:06.988Z,115.60
2018-02-15T16:12:34.531Z,124.47
2018-02-15T16:15:02.888Z,110.47
2018-02-15T16:17:30.439Z,101.07
2018-02-15T16:19:58.000Z,110.17
2018-02-15T16:22:25.554Z,105.00
2018-02-15T16:24:53.122Z,97.63
2018-02-15T16:27:21.420Z,116.67
2018-02-15T16:29:48.989Z,111.73
2018-02-15T16:32:16.556Z,113.97
2018-02-15T16:34:44.428Z,100.53
2018-02-15T16:37:11.969Z,125.77
2018-02-15T16:39:39.524Z,117.83
2018-02-15T16:42:07.100Z,97.03
2018-02-15T16:44:34.648Z,102.80
2018-02-15T16:47:02.207Z,102.23
2018-02-15T16:49:29.756Z,113.93
2018-02-15T16:51:57.325Z,109.53
2018-02-15T16:54:25.081Z,105.67
2018-02-15T16:56:52.661Z,110.43
2018-02-15T16:59:20.985Z,95.50
2018-02-15T17:01:48.552Z,112.13
2018-02-15T17:04:16.100Z,117.50
2018-02-15T17:06:44.452Z,109.47
2018-02-15T17:09:11.999Z,112.43
2018-02-15T17:11:39.548Z,112.63
2018-02-15T17:14:07.110Z,94.87
2018-02-15T17:16:34.656Z,118.40
2018-02-15T17:19:02.211Z,96.83
2018-02-15T17:21:29.751Z,96.83
2018-02-15T17:23:57.314Z,123.83
2018-02-15T17:26:24.863Z,119.60
2018-02-15T17:28:53.192Z,101.07
2018-02-15T17:31:20.742Z,102.27
2018-02-15T17:33:48.297Z,103.33
2018-02-15T17:36:15.837Z,109.97
2018-02-15T17:38:44.180Z,97.07
2018-02-15T17:41:11.719Z,113.83
2018-02-15T17:43:40.054Z,109.50
2018-02-15T17:46:07.594Z,90.83
2018-02-15T17:48:35.131Z,99.20
2018-02-15T17:51:02.701Z,100.60
2018-02-15T17:53:30.274Z,97.73
2018-02-15T17:55:57.874Z,105.30
2018-02-15T17:58:25.425Z,103.83
2018-02-15T18:00:53.079Z,102.07
2018-02-15T18:03:20.650Z,133.60
2018-02-15T18:05:48.252Z,102.23
2018-02-15T18:08:16.560Z,90.80
2018-02-15T18:10:44.127Z,91.23
2018-02-15T18:13:11.672Z,113.90
2018-02-15T18:15:39.240Z,97.10
2018-02-15T18:18:06.822Z,95.23
2018-02-15T18:20:35.136Z,83.73
2018-02-15T18:23:02.704Z,94.67
2018-02-15T18:25:30.252Z,98.90
2018-02-15T18:27:58.587Z,98.43
2018-02-15T18:30:26.232Z,91.80
2018-02-15T18:32:54.564Z,93.40
2018-02-15T18:35:22.106Z,108.33
2018-02-15T18:37:49.666Z,91.30
2018-02-15T18:40:17.979Z,93.00
2018-02-15T18:42:45.812Z,77.90
2018-02-15T18:45:13.358Z,92.90
2018-02-15T18:47:40.940Z,90.40
2018-02-15T18:50:08.504Z,86.30
2018-02-15T18:52:36.064Z,97.07
2018-02-15T18:55:03.627Z,101.23
2018-02-15T18:57:31.174Z,83.23
2018-02-15T18:59:58.745Z,92.57
2018-02-15T19:02:27.302Z,92.97
2018-02-15T19:04:54.863Z,93.67
2018-02-15T19:07:23.382Z,87.27
2018-02-15T19:09:51.724Z,78.23
2018-02-15T19:12:20.072Z,78.73
2018-02-15T19:14:47.664Z,94.83
2018-02-15T19:17:15.208Z,92.60
2018-02-15T19:19:43.522Z,78.60
2018-02-15T19:22:11.113Z,76.63
2018-02-15T19:24:38.684Z,78.13
2018-02-15T19:27:06.277Z,71.27
2018-02-15T19:29:33.816Z,68.10
2018-02-15T19:32:01.408Z,80.90
2018-02-15T19:34:28.930Z,70.10
2018-02-15T19:36:57.260Z,73.77
2018-02-15T19:39:24.795Z,72.47
2018-02-15T19:41:53.124Z,60.77
2018-02-15T19:44:20.673Z,70.00
2018-02-15T19:46:48.223Z,68.03
2018-02-15T19:49:16.537Z,65.07
2018-02-15T19:51:44.105Z,65.43
2018-02-15T19:54:11.643Z,62.70
2018-02-15T19:56:39.227Z,64.07
2018-02-15T19:59:07.539Z,60.40
2018-02-15T20:01:35.079Z,59.70
2018-02-15T20:04:02.634Z,73.60
2018-02-15T20:06:30.188Z,65.93
2018-02-15T20:08:57.738Z,80.33
2018-02-15T20:11:25.280Z,59.37
2018-02-15T20:13:53.604Z,69.73
2018-02-15T20:16:21.912Z,60.90
2018-02-15T20:18:49.472Z,53.70
2018-02-15T20:21:17.020Z,59.00
2018-02-15T20:23:44.580Z,57.17
2018-02-15T20:26:17.762Z,53.80
2018-02-15T20:28:46.075Z,56.87
2018-02-15T20:31:13.617Z,52.97
2018-02-15T20:33:41.218Z,52.67
2018-02-15T20:36:08.775Z,43.47
2018-02-15T20:38:42.797Z,50.07
2018-02-15T20:41:11.123Z,55.47
2018-02-15T20:43:39.434Z,46.03
2018-02-15T20:46:17.622Z,41.97
2018-02-15T20:48:45.199Z,45.40
2018-02-15T20:51:18.280Z,57.60
2018-02-15T20:53:52.195Z,55.80
2018-02-15T20:56:19.730Z,48.23
2018-02-15T20:58:47.298Z,47.77
2018-02-15T21:01:14.847Z,46.43
2018-02-15T21:03:42.400Z,50.00
2018-02-15T21:06:09.959Z,50.97
2018-02-15T21:08:37.504Z,48.40
2018-02-15T21:11:05.064Z,47.87
2018-02-15T21:13:32.612Z,48.30
2018-02-15T21:16:00.162Z,47.87
2018-02-15T21:18:27.697Z,44.00
2018-02-15T21:20:58.762Z,44.17
2018-02-15T21:23:27.078Z,54.17
2018-02-15T21:25:54.628Z,49.57
2018-02-15T21:28:22.934Z,45.40
2018-02-15T21:30:50.466Z,46.60
2018-02-15T21:33:18.033Z,52.67
2018-02-15T21:35:45.593Z,50.60
2018-02-15T21:38:13.160Z,41.57
2018-02-15T21:40:40.703Z,51.60
2018-02-15T21:43:08.288Z,45.73
2018-02-15T21:45:35.881Z,52.37
2018-02-15T21:48:03.438Z,49.13
2018-02-15T21:50:31.022Z,52.43
2018-02-15T21:52:58.598Z,45.17
2018-02-15T21:55:26.146Z,44.63
2018-02-15T21:57:53.716Z,47.97
2018-02-15T22:00:22.204Z,53.83
2018-02-15T22:02:49.748Z,53.47
2018-02-15T22:05:17.323Z,51.27
2018-02-15T22:07:44.907Z,47.37
2018-02-15T22:10:12.472Z,49.23
2018-02-15T22:12:40.011Z,55.80
2018-02-15T22:15:08.343Z,48.77
2018-02-15T22:17:35.893Z,50.80
2018-02-15T22:20:04.224Z,49.83
2018-02-15T22:22:31.777Z,56.73
2018-02-15T22:24:59.316Z,60.53
2018-02-15T22:27:27.634Z,52.27
2018-02-15T22:29:55.171Z,55.97
2018-02-15T22:32:23.494Z,62.83
2018-02-15T22:34:51.031Z,63.43
2018-02-15T22:37:19.436Z,58.10
2018-02-15T22:39:46.991Z,63.23
2018-02-15T22:42:15.318Z,62.80
2018-02-15T22:44:42.852Z,68.70
2018-02-15T22:47:11.186Z,61.37
2018-02-15T22:49:38.731Z,62.87
2018-02-15T22:52:06.311Z,67.27
2018-02-15T22:54:33.859Z,73.50
2018-02-15T22:57:02.187Z,83.53
2018-02-15T22:59:29.755Z,72.50
2018-02-15T23:01:57.312Z,66.37
2018-02-15T23:04:24.871Z,77.27
2018-02-15T23:06:53.169Z,74.57
2018-02-15T23:09:21.490Z,72.30
2018-02-15T23:11:49.799Z,83.33
2018-02-15T23:14:17.360Z,74.30
2018-02-15T23:16:44.900Z,89.87
2018-02-15T23:19:12.480Z,77.47
2018-02-15T23:21:40.016Z,80.60
2018-02-15T23:24:08.355Z,99.97
2018-02-15T23:26:35.904Z,78.93
2018-02-15T23:29:03.467Z,83.03
2018-02-15T23:31:30.998Z,88.47
2018-02-15T23:33:58.584Z,83.67
2018-02-15T23:36:26.127Z,98.73
2018-02-15T23:38:53.662Z,91.23
2018-02-15T23:41:21.219Z,96.77
2018-02-15T23:43:48.766Z,98.17
2018-02-15T23:46:16.317Z,108.40
2018-02-15T23:48:44.311Z,97.07
2018-02-15T23:51:11.876Z,110.67
2018-02-15T23:53:39.419Z,98.37
2018-02-15T23:56:06.982Z,120.07
2018-02-15T23:58:34.511Z,106.67
